Time;durP1;ratioP1;P1;durP2;ratioP2;P2;SDS_P1;SDS_P2;PMS_P1;PMS_P2;Temp;Humidity;BMP_temperature;BMP_pressure;BME280_temperature;BME280_humidity;BME280_pressure;Samples;Min_cycle;Max_cycle;Signal;HPM_P1;HPM_P2
2022/12/14 00:02:05;;;;;;;;;;;;;;;-5.97;100.00;100194.44;5590814;31;34845;-72
2022/12/14 00:05:11;;;;;;;;;;;;;;;-5.98;100.00;100191.00;5590643;31;34724;-72
2022/12/14 00:08:16;;;;;;;;;;;;;;;-5.91;100.00;100192.44;5590642;31;34390;-72
2022/12/14 00:11:21;;;;;;;;;;;;;;;-5.97;100.00;100189.28;5590746;31;34746;-72
2022/12/14 00:14:28;;;;;;;;;;;;;;;-6.02;100.00;100193.81;5590584;31;35125;-73
2022/12/14 00:17:37;;;;;;;;;;;;;;;-6.09;100.00;100187.22;5590766;31;34127;-73
2022/12/14 00:20:41;;;;;;;;;;;;;;;-5.96;100.00;100185.78;5590483;31;35075;-73
2022/12/14 00:23:49;;;;;;;;;;;;;;;-5.93;100.00;100183.91;5590642;31;34538;-72
2022/12/14 00:26:53;;;;;;;;;;;;;;;-5.91;100.00;100189.00;5576842;31;34284;-73
2022/12/14 00:29:58;;;;;;;;;;;;;;;-5.90;100.00;100196.66;5590445;31;34257;-73
2022/12/14 00:33:01;;;;;;;;;;;;;;;-5.85;100.00;100193.84;5590498;31;34918;-74
2022/12/14 00:36:08;;;;;;;;;;;;;;;-5.58;100.00;100199.50;5590523;31;34588;-73
2022/12/14 00:39:15;;;;;;;;;;;;;;;-5.60;100.00;100209.06;5590458;31;34898;-73
2022/12/14 00:42:20;;;;;;;;;;;;;;;-5.50;100.00;100203.41;5590342;31;34250;-73
2022/12/14 00:45:24;;;;;;;;;;;;;;;-5.57;100.00;100208.94;5590380;31;34911;-73
2022/12/14 00:48:31;;;;;;;;;;;;;;;-5.57;100.00;100203.78;5590279;31;34905;-72
2022/12/14 00:51:37;;;;;;;;;;;;;;;-5.36;100.00;100207.94;5590214;31;34979;-73
2022/12/14 00:54:46;;;;;;;;;;;;;;;-5.37;100.00;100201.91;5590190;31;34314;-74
2022/12/14 00:57:52;;;;;;;;;;;;;;;-5.39;100.00;100205.50;5590243;31;35001;-73
2022/12/14 01:01:03;;;;;;;;;;;;;;;-5.35;100.00;100207.03;5590217;31;34601;-73
2022/12/14 01:04:18;;;;;;;;;;;;;;;-5.31;100.00;100208.56;5590114;31;34193;-74
2022/12/14 01:07:25;;;;;;;;;;;;;;;-5.40;100.00;100214.16;5590285;31;34637;-74
2022/12/14 01:10:36;;;;;;;;;;;;;;;-5.32;100.00;100215.47;5590352;31;34295;-73
2022/12/14 01:13:45;;;;;;;;;;;;;;;-5.40;100.00;100219.31;5576082;31;33830;-74
2022/12/14 01:16:56;;;;;;;;;;;;;;;-5.33;100.00;100233.66;5590114;31;34746;-74
2022/12/14 01:20:04;;;;;;;;;;;;;;;-5.33;100.00;100229.34;5576418;31;34598;-74
2022/12/14 01:23:11;;;;;;;;;;;;;;;-5.22;100.00;100227.97;5589974;31;34665;-73
2022/12/14 01:26:23;;;;;;;;;;;;;;;-5.21;100.00;100227.06;5589994;31;34200;-73
2022/12/14 01:29:30;;;;;;;;;;;;;;;-5.15;100.00;100227.63;5590066;31;34754;-73
2022/12/14 01:32:40;;;;;;;;;;;;;;;-5.28;100.00;100218.78;5590089;31;34131;-73
2022/12/14 01:35:48;;;;;;;;;;;;;;;-5.19;100.00;100214.91;5590167;31;34160;-74
2022/12/14 01:38:58;;;;;;;;;;;;;;;-5.15;100.00;100219.00;5589959;31;34449;-73
2022/12/14 01:42:09;;;;;;;;;;;;;;;-5.11;100.00;100217.94;5589914;31;34307;-74
2022/12/14 01:45:17;;;;;;;;;;;;;;;-5.14;100.00;100213.78;5590075;31;34403;-73
2022/12/14 01:48:25;;;;;;;;;;;;;;;-5.28;100.00;100214.41;5589947;31;34978;-73
2022/12/14 01:51:34;;;;;;;;;;;;;;;-5.22;100.00;100212.44;5575768;31;35034;-73
2022/12/14 01:54:46;;;;;;;;;;;;;;;-5.30;100.00;100210.22;5589721;31;35113;-73
2022/12/14 01:57:54;;;;;;;;;;;;;;;-5.31;100.00;100196.47;5589724;31;34171;-73
2022/12/14 02:01:05;;;;;;;;;;;;;;;-5.10;100.00;100194.62;5590027;31;34324;-73
2022/12/14 02:04:14;;;;;;;;;;;;;;;-5.17;100.00;100195.81;5575387;31;34851;-74
2022/12/14 02:07:24;;;;;;;;;;;;;;;-5.12;100.00;100182.66;5589534;31;34222;-74
2022/12/14 02:10:31;;;;;;;;;;;;;;;-5.04;100.00;100178.81;5588406;31;34915;-73
2022/12/14 02:13:39;;;;;;;;;;;;;;;-4.97;100.00;100189.66;5589349;31;34864;-72
2022/12/14 02:16:45;;;;;;;;;;;;;;;-5.04;100.00;100183.97;5589542;31;34293;-73
2022/12/14 02:19:51;;;;;;;;;;;;;;;-5.02;100.00;100182.13;5589376;31;34710;-73
2022/12/14 02:23:12;;;;;;;;;;;;;;;-4.95;100.00;100195.63;5589500;31;34201;-73
2022/12/14 02:26:38;;;;;;;;;;;;;;;-4.85;100.00;100187.34;5589081;31;35072;-74
2022/12/14 02:29:54;;;;;;;;;;;;;;;-4.90;100.00;100180.72;5589244;31;35030;-74
2022/12/14 02:33:01;;;;;;;;;;;;;;;-4.74;100.00;100179.03;5589227;31;34451;-74
2022/12/14 02:36:25;;;;;;;;;;;;;;;-4.64;100.00;100177.66;5589219;31;34654;-74
2022/12/14 02:39:33;;;;;;;;;;;;;;;-4.85;100.00;100174.41;5589194;31;34489;-74
2022/12/14 02:42:52;;;;;;;;;;;;;;;-4.70;100.00;100169.37;5575231;31;34371;-74
2022/12/14 02:46:18;;;;;;;;;;;;;;;-4.68;100.00;100165.78;5575246;31;35461;-74
2022/12/14 02:49:28;;;;;;;;;;;;;;;-4.75;100.00;100150.66;5588993;31;34361;-73
2022/12/14 02:52:58;;;;;;;;;;;;;;;-4.81;100.00;100156.97;5574165;31;33872;-73
2022/12/14 02:56:07;;;;;;;;;;;;;;;-4.58;100.00;100160.97;5588685;31;34326;-73
2022/12/14 02:59:14;;;;;;;;;;;;;;;-4.61;100.00;100161.16;5588471;31;34324;-73
2022/12/14 03:02:22;;;;;;;;;;;;;;;-4.43;100.00;100157.59;5588630;31;34952;-73
2022/12/14 03:05:29;;;;;;;;;;;;;;;-4.55;100.00;100156.47;5588364;31;34233;-73
2022/12/14 03:08:42;;;;;;;;;;;;;;;-4.49;100.00;100151.00;5588373;31;34876;-74
2022/12/14 03:11:50;;;;;;;;;;;;;;;-4.35;100.00;100154.63;5588261;31;34906;-73
2022/12/14 03:15:01;;;;;;;;;;;;;;;-4.34;100.00;100143.34;5588202;31;34519;-73
2022/12/14 03:18:08;;;;;;;;;;;;;;;-4.23;100.00;100131.53;5588454;31;34188;-74
2022/12/14 03:21:18;;;;;;;;;;;;;;;-4.31;100.00;100125.91;5588794;31;34106;-74
2022/12/14 03:24:29;;;;;;;;;;;;;;;-4.25;100.00;100133.34;5591153;31;34839;-75
2022/12/14 03:27:42;;;;;;;;;;;;;;;-4.14;100.00;100136.22;5578200;31;34252;-73
2022/12/14 03:30:51;;;;;;;;;;;;;;;-4.19;100.00;100127.00;5591009;31;35021;-74
2022/12/14 03:34:07;;;;;;;;;;;;;;;-4.30;100.00;100127.56;5591096;31;34214;-74
2022/12/14 03:37:43;;;;;;;;;;;;;;;-4.19;100.00;100129.59;5578024;31;34391;-74
2022/12/14 03:41:03;;;;;;;;;;;;;;;-4.15;100.00;100131.94;5591446;31;34314;-73
2022/12/14 03:44:15;;;;;;;;;;;;;;;-4.02;100.00;100119.19;5590963;31;34239;-74
2022/12/14 03:47:40;;;;;;;;;;;;;;;-4.04;100.00;100108.06;5590984;31;34322;-74
2022/12/14 03:50:52;;;;;;;;;;;;;;;-3.96;100.00;100105.88;5590902;31;34203;-74
2022/12/14 03:54:16;;;;;;;;;;;;;;;-3.88;100.00;100103.72;5590750;31;34283;-74
2022/12/14 03:57:44;;;;;;;;;;;;;;;-3.91;100.00;100095.28;5590922;31;34462;-74
2022/12/14 04:00:54;;;;;;;;;;;;;;;-3.71;100.00;100098.44;5590748;31;34177;-74
2022/12/14 04:04:06;;;;;;;;;;;;;;;-3.85;100.00;100095.78;5590476;31;33776;-74
2022/12/14 04:07:18;;;;;;;;;;;;;;;-3.84;100.00;100094.03;5590656;31;34644;-74
2022/12/14 04:21:08;;;;;;;;;;;;;;;-3.60;100.00;100090.91;5576725;31;34976;-73
2022/12/14 04:27:53;;;;;;;;;;;;;;;-3.52;100.00;100096.50;5590599;31;34647;-75
2022/12/14 04:31:01;;;;;;;;;;;;;;;-3.30;100.00;100092.72;5590620;31;34351;-74
2022/12/14 04:34:10;;;;;;;;;;;;;;;-3.28;100.00;100103.81;5589748;31;34148;-74
2022/12/14 04:37:20;;;;;;;;;;;;;;;-3.13;100.00;100088.22;5590795;31;34874;-74
2022/12/14 04:40:45;;;;;;;;;;;;;;;-2.99;100.00;100089.16;5590429;31;34740;-74
2022/12/14 04:43:53;;;;;;;;;;;;;;;-3.11;100.00;100078.59;5576113;31;32926;-73
2022/12/14 04:47:04;;;;;;;;;;;;;;;-3.27;100.00;100071.78;5590364;31;34887;-74
2022/12/14 04:50:24;;;;;;;;;;;;;;;-3.28;100.00;100070.09;5590439;31;34183;-73
2022/12/14 04:53:33;;;;;;;;;;;;;;;-3.22;100.00;100069.75;5590504;31;34845;-74
2022/12/14 04:56:48;;;;;;;;;;;;;;;-3.31;100.00;100057.31;5590292;31;34262;-73
2022/12/14 04:59:57;;;;;;;;;;;;;;;-3.33;100.00;100054.78;5590499;31;34841;-73
2022/12/14 05:03:08;;;;;;;;;;;;;;;-3.31;100.00;100054.72;5590158;31;34201;-74
2022/12/14 05:06:21;;;;;;;;;;;;;;;-3.28;100.00;100045.00;5590138;31;34321;-74
2022/12/14 05:09:38;;;;;;;;;;;;;;;-3.27;100.00;100035.47;5590135;31;35082;-75
2022/12/14 05:12:49;;;;;;;;;;;;;;;-3.22;100.00;100036.87;5576829;31;34619;-74
2022/12/14 05:15:57;;;;;;;;;;;;;;;-3.15;100.00;100035.56;5590035;31;34260;-71
2022/12/14 05:19:09;;;;;;;;;;;;;;;-3.18;100.00;100058.25;5575812;31;35336;-71
2022/12/14 05:22:19;;;;;;;;;;;;;;;-3.16;100.00;100061.63;5590020;31;34376;-72
2022/12/14 05:25:29;;;;;;;;;;;;;;;-3.18;100.00;100045.28;5562964;31;34877;-71
2022/12/14 05:28:37;;;;;;;;;;;;;;;-3.13;100.00;100048.47;5589990;31;34367;-71
2022/12/14 05:31:44;;;;;;;;;;;;;;;-3.13;100.00;100043.28;5575952;31;35230;-71
2022/12/14 05:34:56;;;;;;;;;;;;;;;-2.98;100.00;100026.81;5589974;31;34588;-71
2022/12/14 05:38:05;;;;;;;;;;;;;;;-2.96;100.00;100021.53;5589793;31;34310;-71
2022/12/14 05:41:10;;;;;;;;;;;;;;;-3.05;100.00;100015.12;5589697;31;34889;-72
2022/12/14 05:44:15;;;;;;;;;;;;;;;-2.98;100.00;100020.78;5575939;31;35575;-71
2022/12/14 05:47:22;;;;;;;;;;;;;;;-2.95;100.00;100029.19;5589736;31;35029;-72
2022/12/14 05:50:30;;;;;;;;;;;;;;;-3.08;100.00;100026.50;5589768;31;34686;-71
2022/12/14 05:53:37;;;;;;;;;;;;;;;-3.08;100.00;100029.09;5589903;31;34190;-70
2022/12/14 05:56:42;;;;;;;;;;;;;;;-2.98;100.00;100037.19;5589502;31;34282;-70
2022/12/14 05:59:47;;;;;;;;;;;;;;;-2.90;100.00;100039.31;5589449;31;34893;-72
2022/12/14 06:02:54;;;;;;;;;;;;;;;-2.81;100.00;100026.63;5589454;31;34341;-73
2022/12/14 06:06:02;;;;;;;;;;;;;;;-2.86;100.00;100022.66;5589498;31;34220;-71
2022/12/14 06:09:09;;;;;;;;;;;;;;;-2.95;100.00;100015.41;5589517;31;34938;-71
2022/12/14 06:12:17;;;;;;;;;;;;;;;-3.01;100.00;100000.22;5589271;31;33923;-70
2022/12/14 06:15:21;;;;;;;;;;;;;;;-3.02;100.00;99989.00;5589680;31;34914;-71
2022/12/14 06:18:36;;;;;;;;;;;;;;;-3.04;100.00;99997.78;5589520;31;34675;-71
2022/12/14 06:21:43;;;;;;;;;;;;;;;-3.04;100.00;100010.75;5589235;31;34355;-71
2022/12/14 06:24:50;;;;;;;;;;;;;;;-2.99;100.00;99999.19;5588993;31;34716;-71
2022/12/14 06:27:54;;;;;;;;;;;;;;;-2.91;100.00;100003.94;5589012;31;34931;-71
2022/12/14 06:30:59;;;;;;;;;;;;;;;-2.84;100.00;100013.84;5574946;31;33522;-72
2022/12/14 06:34:07;;;;;;;;;;;;;;;-2.84;100.00;100020.78;5574967;31;34979;-72
2022/12/14 06:37:11;;;;;;;;;;;;;;;-2.92;100.00;99997.06;5588613;31;34735;-71
2022/12/14 06:40:15;;;;;;;;;;;;;;;-2.92;100.00;99995.31;5588981;31;34919;-71
2022/12/14 06:43:19;;;;;;;;;;;;;;;-2.96;100.00;100006.78;5588400;31;34442;-72
2022/12/14 06:46:23;;;;;;;;;;;;;;;-2.91;100.00;99996.13;5574628;31;35024;-71
2022/12/14 06:49:27;;;;;;;;;;;;;;;-2.90;100.00;99985.66;5588427;31;34087;-71
2022/12/14 06:52:30;;;;;;;;;;;;;;;-2.93;100.00;99987.59;5588297;31;34667;-71
2022/12/14 06:55:35;;;;;;;;;;;;;;;-2.79;100.00;99991.03;5573909;31;34631;-71
2022/12/14 06:58:38;;;;;;;;;;;;;;;-2.81;100.00;99985.09;5590406;31;34299;-71
2022/12/14 07:01:41;;;;;;;;;;;;;;;-2.84;100.00;99971.47;5590966;31;34638;-71
2022/12/14 07:04:45;;;;;;;;;;;;;;;-2.78;100.00;99984.91;5590780;31;34167;-72
2022/12/14 07:07:48;;;;;;;;;;;;;;;-2.71;100.00;99975.00;5590872;31;34986;-71
2022/12/14 07:10:52;;;;;;;;;;;;;;;-2.71;100.00;99975.81;5577047;31;35433;-71
2022/12/14 07:14:05;;;;;;;;;;;;;;;-2.77;100.00;99978.81;5591120;31;34905;-72
2022/12/14 07:17:08;;;;;;;;;;;;;;;-2.79;100.00;99983.25;5590923;31;34079;-71
2022/12/14 07:20:12;;;;;;;;;;;;;;;-2.74;100.00;99955.25;5591268;31;34842;-71
2022/12/14 07:23:15;;;;;;;;;;;;;;;-2.58;100.00;99947.34;5564146;31;33050;-71
2022/12/14 07:26:21;;;;;;;;;;;;;;;-2.56;100.00;99948.06;5576371;31;34555;-71
2022/12/14 07:29:24;;;;;;;;;;;;;;;-2.43;100.00;99950.75;5591050;31;34196;-71
2022/12/14 07:32:34;;;;;;;;;;;;;;;-2.50;100.00;99962.44;5590744;31;34340;-71
2022/12/14 07:35:38;;;;;;;;;;;;;;;-2.38;100.00;99969.47;5590977;31;34551;-71
2022/12/14 07:38:43;;;;;;;;;;;;;;;-2.43;100.00;99968.94;5563631;31;32910;-71
2022/12/14 07:41:49;;;;;;;;;;;;;;;-2.38;100.00;99954.72;5576587;31;34220;-71
2022/12/14 07:44:55;;;;;;;;;;;;;;;-2.43;100.00;99959.38;5590501;31;34658;-72
2022/12/14 07:47:58;;;;;;;;;;;;;;;-2.28;100.00;99973.16;5590533;31;34678;-71
2022/12/14 07:51:06;;;;;;;;;;;;;;;-2.15;100.00;99979.25;5576746;31;34393;-71
2022/12/14 07:54:09;;;;;;;;;;;;;;;-2.12;100.00;99988.59;5576894;31;34241;-71
2022/12/14 07:57:14;;;;;;;;;;;;;;;-2.26;100.00;99998.09;5577165;31;34371;-71
2022/12/14 08:00:18;;;;;;;;;;;;;;;-2.17;100.00;99999.28;5590268;31;34288;-71
2022/12/14 08:03:24;;;;;;;;;;;;;;;-2.10;100.00;99985.00;5590143;31;34242;-71
2022/12/14 08:06:28;;;;;;;;;;;;;;;-2.15;100.00;100000.03;5576515;31;34178;-71
2022/12/14 08:09:32;;;;;;;;;;;;;;;-2.16;100.00;99992.31;5589355;31;34420;-71
2022/12/14 08:12:35;;;;;;;;;;;;;;;-2.20;100.00;99987.34;5563857;31;34552;-71
2022/12/14 08:15:39;;;;;;;;;;;;;;;-2.06;100.00;99983.03;5590326;31;35117;-71
2022/12/14 08:18:43;;;;;;;;;;;;;;;-1.93;100.00;99987.31;5575955;31;34344;-71
2022/12/14 08:21:48;;;;;;;;;;;;;;;-2.10;100.00;99992.78;5590402;31;34297;-71
2022/12/14 08:24:51;;;;;;;;;;;;;;;-1.95;100.00;99985.78;5590533;31;34238;-71
2022/12/14 08:27:56;;;;;;;;;;;;;;;-2.00;100.00;99972.25;5576006;31;34565;-71
2022/12/14 08:31:07;;;;;;;;;;;;;;;-1.86;100.00;99980.81;5576146;31;34350;-71
2022/12/14 08:34:11;;;;;;;;;;;;;;;-1.83;100.00;99987.56;5590561;31;34566;-71
2022/12/14 08:37:15;;;;;;;;;;;;;;;-2.10;100.00;99985.00;5590355;31;34640;-71
2022/12/14 08:40:18;;;;;;;;;;;;;;;-1.98;100.00;99986.78;5576366;31;34890;-71
2022/12/14 08:43:21;;;;;;;;;;;;;;;-1.98;100.00;99984.19;5590091;31;34262;-71
2022/12/14 08:46:29;;;;;;;;;;;;;;;-2.08;100.00;99990.91;5590340;31;35298;-71
2022/12/14 08:49:33;;;;;;;;;;;;;;;-1.97;100.00;99969.44;5590261;31;34232;-72
2022/12/14 08:52:37;;;;;;;;;;;;;;;-1.77;100.00;99966.38;5576055;31;34371;-71
2022/12/14 08:55:39;;;;;;;;;;;;;;;-1.88;100.00;99969.66;5576296;31;35446;-71
2022/12/14 08:58:42;;;;;;;;;;;;;;;-1.89;100.00;99954.19;5590260;31;34719;-71
2022/12/14 09:01:46;;;;;;;;;;;;;;;-1.99;100.00;99930.56;5590293;31;34916;-71
2022/12/14 09:04:51;;;;;;;;;;;;;;;-2.01;100.00;99932.41;5590169;31;34300;-71
2022/12/14 09:07:54;;;;;;;;;;;;;;;-1.95;100.00;99931.19;5590030;31;34249;-71
2022/12/14 09:10:58;;;;;;;;;;;;;;;-1.84;100.00;99941.72;5576607;31;34827;-71
2022/12/14 09:14:01;;;;;;;;;;;;;;;-1.96;100.00;99947.72;5590522;31;34311;-71
2022/12/14 09:17:06;;;;;;;;;;;;;;;-1.89;100.00;99947.19;5590016;31;34534;-71
2022/12/14 09:20:12;;;;;;;;;;;;;;;-1.71;100.00;99942.59;5589525;31;34643;-71
2022/12/14 09:23:16;;;;;;;;;;;;;;;-1.86;100.00;99944.41;5576564;31;34268;-71
2022/12/14 09:26:21;;;;;;;;;;;;;;;-1.55;100.00;99945.81;5589872;31;34518;-70
2022/12/14 09:29:25;;;;;;;;;;;;;;;-1.87;100.00;99944.50;5576403;31;34245;-71
2022/12/14 09:32:28;;;;;;;;;;;;;;;-1.86;100.00;99935.78;5590138;31;34306;-70
2022/12/14 09:35:32;;;;;;;;;;;;;;;-1.93;100.00;99937.09;5562827;31;34019;-69
2022/12/14 09:38:36;;;;;;;;;;;;;;;-2.06;100.00;99931.03;5590769;31;34842;-71
2022/12/14 09:41:59;;;;;;;;;;;;;;;-1.85;100.00;99929.66;5589865;31;34864;-71
2022/12/14 09:45:13;;;;;;;;;;;;;;;-1.79;100.00;99909.28;5575639;31;34781;-70
2022/12/14 09:48:19;;;;;;;;;;;;;;;-1.61;100.00;99901.19;5589202;31;35194;-71
2022/12/14 09:51:24;;;;;;;;;;;;;;;-1.60;100.00;99897.66;5589616;31;34315;-70
2022/12/14 09:54:29;;;;;;;;;;;;;;;-1.46;100.00;99890.59;5589710;31;34779;-71
2022/12/14 09:57:36;;;;;;;;;;;;;;;-1.57;100.00;99882.69;5589815;31;34323;-70
2022/12/14 10:00:43;;;;;;;;;;;;;;;-1.71;100.00;99877.56;5589753;31;34135;-70
2022/12/14 10:04:02;;;;;;;;;;;;;;;-1.69;100.00;99877.47;5563543;31;34305;-70
2022/12/14 10:07:07;;;;;;;;;;;;;;;-1.78;100.00;99881.50;5575641;31;35153;-70
2022/12/14 10:10:15;;;;;;;;;;;;;;;-1.84;100.00;99879.34;5576161;31;33108;-70
2022/12/14 10:13:36;;;;;;;;;;;;;;;-1.63;100.00;99877.88;5589330;31;34950;-70
2022/12/14 10:16:49;;;;;;;;;;;;;;;-1.61;100.00;99880.41;5575361;31;35512;-70
2022/12/14 10:20:15;;;;;;;;;;;;;;;-1.73;100.00;99879.44;5589220;31;34015;-70
2022/12/14 10:23:20;;;;;;;;;;;;;;;-1.59;100.00;99886.31;5589192;31;34833;-70
2022/12/14 10:26:51;;;;;;;;;;;;;;;-1.55;100.00;99882.59;5575581;31;35012;-71
2022/12/14 10:30:03;;;;;;;;;;;;;;;-1.23;100.00;99862.16;5587621;31;34019;-70
2022/12/14 10:33:21;;;;;;;;;;;;;;;-1.37;100.00;99861.34;5588151;31;33727;-71
2022/12/14 10:36:33;;;;;;;;;;;;;;;-0.90;100.00;99852.84;5589082;31;34786;-70
2022/12/14 10:39:53;;;;;;;;;;;;;;;-0.77;100.00;99839.78;5589070;31;34216;-72
2022/12/14 10:42:56;;;;;;;;;;;;;;;-0.83;100.00;99829.81;5588912;31;34652;-71
2022/12/14 10:46:09;;;;;;;;;;;;;;;-1.35;100.00;99820.44;5577705;31;34908;-69
2022/12/14 10:49:31;;;;;;;;;;;;;;;-1.00;100.00;99824.94;5575315;31;33062;-72
2022/12/14 10:52:36;;;;;;;;;;;;;;;-0.99;100.00;99811.84;5588845;31;34782;-71
2022/12/14 10:55:43;;;;;;;;;;;;;;;-0.76;100.00;99818.00;5589026;31;34981;-73
2022/12/14 10:59:05;;;;;;;;;;;;;;;-0.99;100.00;99816.22;5575224;31;34430;-72
2022/12/14 11:02:15;;;;;;;;;;;;;;;-0.87;100.00;99810.13;5588911;31;34870;-71
2022/12/14 11:05:29;;;;;;;;;;;;;;;-1.21;100.00;99816.88;5575026;31;34184;-71
2022/12/14 11:08:43;;;;;;;;;;;;;;;-0.91;100.00;99816.50;5574645;31;36168;-71
2022/12/14 11:11:57;;;;;;;;;;;;;;;-1.15;100.00;99803.44;5575647;31;34284;-71
2022/12/14 11:15:02;;;;;;;;;;;;;;;-1.25;100.00;99815.44;5588582;31;34868;-71
2022/12/14 11:18:08;;;;;;;;;;;;;;;-1.44;100.00;99815.03;5588431;31;34173;-71
2022/12/14 11:21:14;;;;;;;;;;;;;;;-1.51;100.00;99799.03;5588501;31;34819;-71
2022/12/14 11:24:24;;;;;;;;;;;;;;;-1.32;100.00;99799.44;5588072;31;35078;-71
2022/12/14 11:27:30;;;;;;;;;;;;;;;-1.34;100.00;99803.06;5588192;31;34281;-71
2022/12/14 11:30:36;;;;;;;;;;;;;;;-1.22;100.00;99794.41;5588322;31;34551;-71
2022/12/14 11:33:47;;;;;;;;;;;;;;;-1.36;100.00;99782.38;5587887;31;34987;-70
2022/12/14 11:36:52;;;;;;;;;;;;;;;-1.09;100.00;99778.75;5587874;31;34993;-72
2022/12/14 11:39:56;;;;;;;;;;;;;;;-0.83;100.00;99774.28;5574339;31;34188;-71
2022/12/14 11:43:02;;;;;;;;;;;;;;;-0.87;100.00;99763.25;5589023;31;34387;-72
2022/12/14 11:46:06;;;;;;;;;;;;;;;-0.84;100.00;99768.25;5576746;31;35435;-71
2022/12/14 11:49:22;;;;;;;;;;;;;;;-1.22;100.00;99757.16;5590751;31;34297;-72
2022/12/14 11:52:41;;;;;;;;;;;;;;;-1.16;100.00;99746.31;5590915;31;34193;-72
2022/12/14 11:55:47;;;;;;;;;;;;;;;-1.23;100.00;99737.25;5591567;31;34479;-72
2022/12/14 11:58:51;;;;;;;;;;;;;;;-1.35;100.00;99738.94;5591155;31;34910;-72
2022/12/14 12:02:05;;;;;;;;;;;;;;;-0.92;100.00;99737.53;5590703;31;34855;-71
2022/12/14 12:05:18;;;;;;;;;;;;;;;-1.10;100.00;99723.25;5590459;31;34290;-72
2022/12/14 12:08:26;;;;;;;;;;;;;;;-1.24;100.00;99731.22;5563662;31;34577;-72
2022/12/14 12:11:32;;;;;;;;;;;;;;;-1.42;100.00;99720.34;5590513;31;34367;-71
2022/12/14 12:14:46;;;;;;;;;;;;;;;-1.22;100.00;99715.50;5577833;31;34937;-71
2022/12/14 12:17:52;;;;;;;;;;;;;;;-1.11;100.00;99718.16;5576828;31;34824;-71
2022/12/14 12:21:07;;;;;;;;;;;;;;;-1.17;100.00;99705.59;5576829;31;34878;-72
2022/12/14 12:24:13;;;;;;;;;;;;;;;-0.96;100.00;99704.88;5590629;31;34180;-71
2022/12/14 12:27:16;;;;;;;;;;;;;;;-1.03;100.00;99708.03;5576175;31;34185;-71
2022/12/14 12:30:23;;;;;;;;;;;;;;;-0.75;100.00;99702.47;5590745;31;35008;-72
2022/12/14 12:33:33;;;;;;;;;;;;;;;-0.89;100.00;99692.25;5590495;31;34840;-71
2022/12/14 12:36:37;;;;;;;;;;;;;;;-0.92;100.00;99680.25;5590402;31;34297;-70
2022/12/14 12:40:12;;;;;;;;;;;;;;;-1.03;100.00;99674.19;5576468;31;35062;-71
2022/12/14 12:43:20;;;;;;;;;;;;;;;-0.98;100.00;99672.94;5590682;31;34628;-72
2022/12/14 12:46:32;;;;;;;;;;;;;;;-1.06;100.00;99672.63;5590404;31;34507;-71
2022/12/14 12:49:35;;;;;;;;;;;;;;;-0.85;100.00;99662.44;5590336;31;34181;-72
2022/12/14 12:52:55;;;;;;;;;;;;;;;-0.67;100.00;99655.00;5590421;31;34266;-70
2022/12/14 12:56:24;;;;;;;;;;;;;;;-0.78;100.00;99660.22;5575389;31;35715;-72
2022/12/14 12:59:27;;;;;;;;;;;;;;;-0.45;100.00;99655.91;5590134;31;34415;-71
2022/12/14 13:02:32;;;;;;;;;;;;;;;-0.61;100.00;99644.16;5575954;31;33597;-71
2022/12/14 13:05:38;;;;;;;;;;;;;;;-0.78;100.00;99644.59;5575934;31;34561;-71
2022/12/14 13:08:56;;;;;;;;;;;;;;;-1.01;100.00;99646.25;5590166;31;34888;-72
2022/12/14 13:12:01;;;;;;;;;;;;;;;-0.79;100.00;99637.72;5575955;31;34804;-70
2022/12/14 13:15:12;;;;;;;;;;;;;;;-1.01;100.00;99639.28;5589501;31;34777;-71
2022/12/14 13:18:22;;;;;;;;;;;;;;;-0.96;100.00;99642.37;5589685;31;34853;-71
2022/12/14 13:21:47;;;;;;;;;;;;;;;-0.90;100.00;99638.50;5578507;31;34136;-71
2022/12/14 13:24:53;;;;;;;;;;;;;;;-0.80;100.00;99636.06;5589751;31;34790;-72
2022/12/14 13:28:27;;;;;;;;;;;;;;;-0.49;100.00;99638.88;5590060;31;34361;-70
2022/12/14 13:31:55;;;;;;;;;;;;;;;-0.81;100.00;99626.56;5589838;31;35152;-71
2022/12/14 13:35:05;;;;;;;;;;;;;;;-0.65;100.00;99621.88;5590039;31;34152;-71
2022/12/14 13:38:20;;;;;;;;;;;;;;;-0.72;100.00;99616.28;5576497;31;34934;-71
2022/12/14 13:41:46;;;;;;;;;;;;;;;-0.67;100.00;99613.34;5590194;31;34830;-71
2022/12/14 13:45:00;;;;;;;;;;;;;;;-0.62;100.00;99614.66;5589847;31;34296;-70
2022/12/14 13:48:16;;;;;;;;;;;;;;;-0.79;100.00;99609.91;5589656;31;34629;-71
2022/12/14 13:51:24;;;;;;;;;;;;;;;-0.94;100.00;99604.06;5589673;31;34670;-70
2022/12/14 13:54:30;;;;;;;;;;;;;;;-0.91;100.00;99598.63;5589664;31;34921;-70
2022/12/14 13:57:34;;;;;;;;;;;;;;;-1.04;100.00;99595.28;5589632;31;33092;-70
2022/12/14 14:00:44;;;;;;;;;;;;;;;-1.05;100.00;99585.81;5589738;31;34210;-70
2022/12/14 14:03:50;;;;;;;;;;;;;;;-1.07;100.00;99581.66;5575285;31;35631;-72
2022/12/14 14:07:02;;;;;;;;;;;;;;;-0.95;100.00;99578.97;5587990;31;34273;-70
2022/12/14 14:10:25;;;;;;;;;;;;;;;-0.94;100.00;99574.59;5589502;31;34918;-70
2022/12/14 14:13:29;;;;;;;;;;;;;;;-1.10;100.00;99569.69;5575261;31;34829;-71
2022/12/14 14:16:41;;;;;;;;;;;;;;;-1.07;100.00;99571.25;5589270;31;34261;-71
2022/12/14 14:19:46;;;;;;;;;;;;;;;-1.05;100.00;99575.38;5562668;31;33436;-70
2022/12/14 14:23:08;;;;;;;;;;;;;;;-1.11;100.00;99569.78;5575536;31;33265;-71
2022/12/14 14:26:24;;;;;;;;;;;;;;;-1.08;100.00;99565.22;5589207;31;34211;-70
2022/12/14 14:29:29;;;;;;;;;;;;;;;-1.12;100.00;99562.97;5575714;31;34685;-70
2022/12/14 14:32:40;;;;;;;;;;;;;;;-1.08;100.00;99561.78;5589231;31;34397;-70
2022/12/14 14:35:45;;;;;;;;;;;;;;;-1.11;100.00;99559.37;5575213;31;35580;-69
2022/12/14 14:38:54;;;;;;;;;;;;;;;-1.19;100.00;99548.72;5574830;31;33285;-70
2022/12/14 14:42:00;;;;;;;;;;;;;;;-1.18;100.00;99539.97;5589044;31;34261;-69
2022/12/14 14:45:05;;;;;;;;;;;;;;;-1.31;100.00;99538.28;5588797;31;35096;-70
2022/12/14 14:48:21;;;;;;;;;;;;;;;-1.29;100.00;99542.53;5574303;31;34727;-70
2022/12/14 14:51:28;;;;;;;;;;;;;;;-1.25;100.00;99547.41;5588671;31;34366;-70
2022/12/14 14:54:32;;;;;;;;;;;;;;;-1.32;100.00;99541.00;5588763;31;34241;-70
2022/12/14 14:58:08;;;;;;;;;;;;;;;-1.28;100.00;99549.41;5588155;31;34130;-70
2022/12/14 15:01:19;;;;;;;;;;;;;;;-1.34;100.00;99548.91;5574801;31;34850;-71
2022/12/14 15:04:41;;;;;;;;;;;;;;;-1.47;100.00;99555.12;5588334;31;34900;-71
2022/12/14 15:07:45;;;;;;;;;;;;;;;-1.33;100.00;99549.75;5587907;31;34910;-69
2022/12/14 15:10:50;;;;;;;;;;;;;;;-1.23;100.00;99549.91;5574868;31;34811;-69
2022/12/14 15:14:01;;;;;;;;;;;;;;;-1.21;100.00;99555.84;5588267;31;34830;-70
2022/12/14 15:17:11;;;;;;;;;;;;;;;-1.13;100.00;99556.09;5588192;31;34913;-71
2022/12/14 15:20:22;;;;;;;;;;;;;;;-1.25;100.00;99546.56;5576959;31;35031;-70
2022/12/14 15:23:34;;;;;;;;;;;;;;;-1.39;100.00;99558.84;5590493;31;35266;-69
2022/12/14 15:26:40;;;;;;;;;;;;;;;-1.42;100.00;99540.84;5590819;31;34210;-70
2022/12/14 15:29:45;;;;;;;;;;;;;;;-1.34;100.00;99541.13;5577280;31;34334;-71
2022/12/14 15:33:03;;;;;;;;;;;;;;;-1.34;100.00;99535.91;5590200;31;34288;-70
2022/12/14 15:36:10;;;;;;;;;;;;;;;-1.33;100.00;99534.97;5590615;31;34892;-70
2022/12/14 15:39:26;;;;;;;;;;;;;;;-1.32;100.00;99533.22;5576835;31;34511;-70
2022/12/14 15:42:30;;;;;;;;;;;;;;;-1.40;100.00;99531.16;5577046;31;34992;-71
2022/12/14 15:45:41;;;;;;;;;;;;;;;-1.49;100.00;99541.41;5563616;31;34905;-70
2022/12/14 15:48:45;;;;;;;;;;;;;;;-1.41;100.00;99536.50;5590333;31;34808;-70
2022/12/14 15:51:51;;;;;;;;;;;;;;;-1.40;100.00;99538.13;5590239;31;34586;-70
2022/12/14 15:54:57;;;;;;;;;;;;;;;-1.43;100.00;99543.56;5576636;31;33174;-70
2022/12/14 15:58:07;;;;;;;;;;;;;;;-1.34;100.00;99543.72;5576275;31;33754;-70
2022/12/14 16:01:23;;;;;;;;;;;;;;;-1.36;100.00;99543.03;5590699;31;34963;-70
2022/12/14 16:04:29;;;;;;;;;;;;;;;-1.27;100.00;99538.91;5576223;31;35098;-71
2022/12/14 16:07:36;;;;;;;;;;;;;;;-1.41;100.00;99537.31;5590626;31;34729;-69
2022/12/14 16:10:42;;;;;;;;;;;;;;;-1.31;100.00;99522.66;5590465;31;34978;-69
2022/12/14 16:13:48;;;;;;;;;;;;;;;-1.45;100.00;99522.84;5590520;31;34792;-71
2022/12/14 16:16:54;;;;;;;;;;;;;;;-1.39;100.00;99512.00;5590334;31;34858;-70
2022/12/14 16:20:08;;;;;;;;;;;;;;;-1.38;100.00;99505.03;5591026;31;33539;-71
2022/12/14 16:23:16;;;;;;;;;;;;;;;-1.48;100.00;99488.44;5564190;31;34454;-70